sensor_id;sensor_type;location;lat;lon;timestamp;P1;durP1;ratioP1;P2;durP2;ratioP2
2396;SDS011;1209;48.410;9.054;2024-03-17T00:00:14;9.27;;;6.13;;
2396;SDS011;1209;48.410;9.054;2024-03-17T00:02:43;7.23;;;5.40;;
2396;SDS011;1209;48.410;9.054;2024-03-17T00:05:09;8.93;;;5.77;;
2396;SDS011;1209;48.410;9.054;2024-03-17T00:07:34;6.10;;;4.50;;
2396;SDS011;1209;48.410;9.054;2024-03-17T00:10:00;5.70;;;4.60;;
2396;SDS011;1209;48.410;9.054;2024-03-17T00:12:25;5.80;;;4.80;;
2396;SDS011;1209;48.410;9.054;2024-03-17T00:14:51;5.90;;;4.73;;
2396;SDS011;1209;48.410;9.054;2024-03-17T00:17:16;9.63;;;4.23;;
2396;SDS011;1209;48.410;9.054;2024-03-17T00:19:41;5.50;;;5.00;;
2396;SDS011;1209;48.410;9.054;2024-03-17T00:22:08;6.27;;;4.97;;
2396;SDS011;1209;48.410;9.054;2024-03-17T00:24:38;4.93;;;4.43;;
2396;SDS011;1209;48.410;9.054;2024-03-17T00:27:10;5.43;;;4.73;;
2396;SDS011;1209;48.410;9.054;2024-03-17T00:29:36;7.30;;;4.57;;
2396;SDS011;1209;48.410;9.054;2024-03-17T00:32:02;4.97;;;4.40;;
2396;SDS011;1209;48.410;9.054;2024-03-17T00:34:28;4.80;;;4.30;;
2396;SDS011;1209;48.410;9.054;2024-03-17T00:36:53;4.73;;;4.33;;
2396;SDS011;1209;48.410;9.054;2024-03-17T00:39:19;6.20;;;5.03;;
2396;SDS011;1209;48.410;9.054;2024-03-17T00:41:44;6.40;;;3.90;;
2396;SDS011;1209;48.410;9.054;2024-03-17T00:44:09;8.57;;;3.63;;
2396;SDS011;1209;48.410;9.054;2024-03-17T00:46:35;5.80;;;4.37;;
2396;SDS011;1209;48.410;9.054;2024-03-17T00:49:00;5.43;;;3.60;;
2396;SDS011;1209;48.410;9.054;2024-03-17T00:51:26;5.10;;;3.37;;
2396;SDS011;1209;48.410;9.054;2024-03-17T00:53:51;4.17;;;3.73;;
2396;SDS011;1209;48.410;9.054;2024-03-17T00:56:16;4.57;;;3.60;;
2396;SDS011;1209;48.410;9.054;2024-03-17T00:58:42;3.70;;;3.40;;
2396;SDS011;1209;48.410;9.054;2024-03-17T01:01:09;5.00;;;4.20;;
2396;SDS011;1209;48.410;9.054;2024-03-17T01:03:35;6.00;;;3.77;;
2396;SDS011;1209;48.410;9.054;2024-03-17T01:06:02;3.40;;;2.90;;
2396;SDS011;1209;48.410;9.054;2024-03-17T01:08:29;3.13;;;2.83;;
2396;SDS011;1209;48.410;9.054;2024-03-17T01:10:54;5.40;;;3.60;;
2396;SDS011;1209;48.410;9.054;2024-03-17T01:13:20;3.60;;;3.10;;
2396;SDS011;1209;48.410;9.054;2024-03-17T01:15:45;5.10;;;3.37;;
2396;SDS011;1209;48.410;9.054;2024-03-17T01:18:11;2.80;;;2.60;;
2396;SDS011;1209;48.410;9.054;2024-03-17T01:20:37;5.97;;;4.40;;
2396;SDS011;1209;48.410;9.054;2024-03-17T01:23:04;7.30;;;4.93;;
2396;SDS011;1209;48.410;9.054;2024-03-17T01:25:30;8.17;;;4.07;;
2396;SDS011;1209;48.410;9.054;2024-03-17T01:27:57;5.70;;;3.60;;
2396;SDS011;1209;48.410;9.054;2024-03-17T01:30:22;4.63;;;3.43;;
2396;SDS011;1209;48.410;9.054;2024-03-17T01:32:48;3.10;;;2.80;;
2396;SDS011;1209;48.410;9.054;2024-03-17T01:35:14;4.27;;;3.30;;
2396;SDS011;1209;48.410;9.054;2024-03-17T01:37:40;3.07;;;2.77;;
2396;SDS011;1209;48.410;9.054;2024-03-17T01:40:06;4.00;;;3.20;;
2396;SDS011;1209;48.410;9.054;2024-03-17T01:42:36;5.27;;;3.00;;
2396;SDS011;1209;48.410;9.054;2024-03-17T01:45:25;3.40;;;2.93;;
2396;SDS011;1209;48.410;9.054;2024-03-17T01:47:55;2.97;;;2.70;;
2396;SDS011;1209;48.410;9.054;2024-03-17T01:50:37;4.43;;;3.73;;
2396;SDS011;1209;48.410;9.054;2024-03-17T01:53:03;5.80;;;2.73;;
2396;SDS011;1209;48.410;9.054;2024-03-17T01:55:30;3.00;;;2.77;;
2396;SDS011;1209;48.410;9.054;2024-03-17T01:58:02;3.60;;;3.13;;
2396;SDS011;1209;48.410;9.054;2024-03-17T02:00:28;3.87;;;2.87;;
2396;SDS011;1209;48.410;9.054;2024-03-17T02:02:56;3.77;;;3.37;;
2396;SDS011;1209;48.410;9.054;2024-03-17T02:05:22;3.47;;;3.17;;
2396;SDS011;1209;48.410;9.054;2024-03-17T02:07:47;3.83;;;3.10;;
2396;SDS011;1209;48.410;9.054;2024-03-17T02:10:14;3.40;;;3.00;;
2396;SDS011;1209;48.410;9.054;2024-03-17T02:12:40;2.73;;;2.53;;
2396;SDS011;1209;48.410;9.054;2024-03-17T02:15:06;7.80;;;3.80;;
2396;SDS011;1209;48.410;9.054;2024-03-17T02:17:32;3.53;;;3.10;;
2396;SDS011;1209;48.410;9.054;2024-03-17T02:19:58;3.27;;;2.80;;
2396;SDS011;1209;48.410;9.054;2024-03-17T02:22:23;3.87;;;3.13;;
2396;SDS011;1209;48.410;9.054;2024-03-17T02:24:49;5.23;;;2.77;;
2396;SDS011;1209;48.410;9.054;2024-03-17T02:27:14;2.90;;;2.40;;
2396;SDS011;1209;48.410;9.054;2024-03-17T02:29:39;3.43;;;3.07;;
2396;SDS011;1209;48.410;9.054;2024-03-17T02:32:05;3.30;;;3.00;;
2396;SDS011;1209;48.410;9.054;2024-03-17T02:34:34;4.50;;;2.93;;
2396;SDS011;1209;48.410;9.054;2024-03-17T02:37:01;5.90;;;3.13;;
2396;SDS011;1209;48.410;9.054;2024-03-17T02:39:28;3.10;;;2.73;;
2396;SDS011;1209;48.410;9.054;2024-03-17T02:41:56;3.13;;;2.93;;
2396;SDS011;1209;48.410;9.054;2024-03-17T02:44:22;2.90;;;2.60;;
2396;SDS011;1209;48.410;9.054;2024-03-17T02:46:47;3.33;;;2.93;;
2396;SDS011;1209;48.410;9.054;2024-03-17T02:49:13;4.67;;;3.70;;
2396;SDS011;1209;48.410;9.054;2024-03-17T02:51:39;4.83;;;2.93;;
2396;SDS011;1209;48.410;9.054;2024-03-17T02:54:04;4.80;;;3.20;;
2396;SDS011;1209;48.410;9.054;2024-03-17T02:56:31;10.30;;;3.40;;
2396;SDS011;1209;48.410;9.054;2024-03-17T02:58:56;4.67;;;3.57;;
2396;SDS011;1209;48.410;9.054;2024-03-17T03:01:21;4.00;;;2.47;;
2396;SDS011;1209;48.410;9.054;2024-03-17T03:03:47;4.10;;;3.57;;
2396;SDS011;1209;48.410;9.054;2024-03-17T03:06:12;3.37;;;2.90;;
2396;SDS011;1209;48.410;9.054;2024-03-17T03:08:38;2.73;;;2.53;;
2396;SDS011;1209;48.410;9.054;2024-03-17T03:11:07;4.10;;;3.10;;
2396;SDS011;1209;48.410;9.054;2024-03-17T03:13:43;7.80;;;3.13;;
2396;SDS011;1209;48.410;9.054;2024-03-17T03:16:12;4.50;;;3.50;;
2396;SDS011;1209;48.410;9.054;2024-03-17T03:18:39;4.00;;;3.20;;
2396;SDS011;1209;48.410;9.054;2024-03-17T03:21:05;3.30;;;3.10;;
2396;SDS011;1209;48.410;9.054;2024-03-17T03:23:31;3.40;;;3.10;;
2396;SDS011;1209;48.410;9.054;2024-03-17T03:25:57;2.60;;;2.40;;
2396;SDS011;1209;48.410;9.054;2024-03-17T03:28:24;3.67;;;3.03;;
2396;SDS011;1209;48.410;9.054;2024-03-17T03:30:50;4.33;;;2.40;;
2396;SDS011;1209;48.410;9.054;2024-03-17T03:33:16;5.10;;;3.60;;
2396;SDS011;1209;48.410;9.054;2024-03-17T03:35:42;3.23;;;3.03;;
2396;SDS011;1209;48.410;9.054;2024-03-17T03:38:08;3.87;;;3.37;;
2396;SDS011;1209;48.410;9.054;2024-03-17T03:40:34;4.10;;;3.20;;
2396;SDS011;1209;48.410;9.054;2024-03-17T03:42:59;5.13;;;3.13;;
2396;SDS011;1209;48.410;9.054;2024-03-17T03:45:24;4.57;;;3.53;;
2396;SDS011;1209;48.410;9.054;2024-03-17T03:47:51;3.80;;;3.37;;
2396;SDS011;1209;48.410;9.054;2024-03-17T03:50:19;4.47;;;3.30;;
2396;SDS011;1209;48.410;9.054;2024-03-17T03:52:46;4.10;;;3.20;;
2396;SDS011;1209;48.410;9.054;2024-03-17T03:55:11;3.33;;;3.03;;
2396;SDS011;1209;48.410;9.054;2024-03-17T03:57:40;3.73;;;3.43;;
2396;SDS011;1209;48.410;9.054;2024-03-17T04:00:06;4.90;;;3.13;;
2396;SDS011;1209;48.410;9.054;2024-03-17T04:02:38;4.30;;;3.27;;
2396;SDS011;1209;48.410;9.054;2024-03-17T04:05:04;5.30;;;3.33;;
2396;SDS011;1209;48.410;9.054;2024-03-17T04:07:30;4.10;;;3.70;;
2396;SDS011;1209;48.410;9.054;2024-03-17T04:09:55;4.50;;;3.63;;
2396;SDS011;1209;48.410;9.054;2024-03-17T04:12:20;4.30;;;3.30;;
2396;SDS011;1209;48.410;9.054;2024-03-17T04:14:46;3.83;;;3.03;;
2396;SDS011;1209;48.410;9.054;2024-03-17T04:17:12;2.77;;;2.50;;
2396;SDS011;1209;48.410;9.054;2024-03-17T04:19:38;3.17;;;2.83;;
2396;SDS011;1209;48.410;9.054;2024-03-17T04:22:03;2.97;;;2.60;;
2396;SDS011;1209;48.410;9.054;2024-03-17T04:24:28;2.97;;;2.50;;
2396;SDS011;1209;48.410;9.054;2024-03-17T04:26:54;2.40;;;2.20;;
2396;SDS011;1209;48.410;9.054;2024-03-17T04:29:20;4.80;;;2.80;;
2396;SDS011;1209;48.410;9.054;2024-03-17T04:31:45;2.60;;;2.40;;
2396;SDS011;1209;48.410;9.054;2024-03-17T04:34:14;2.67;;;2.47;;
2396;SDS011;1209;48.410;9.054;2024-03-17T04:36:40;2.57;;;2.37;;
2396;SDS011;1209;48.410;9.054;2024-03-17T04:39:05;2.57;;;2.37;;
2396;SDS011;1209;48.410;9.054;2024-03-17T04:41:33;2.93;;;2.73;;
2396;SDS011;1209;48.410;9.054;2024-03-17T04:44:00;4.00;;;2.87;;
2396;SDS011;1209;48.410;9.054;2024-03-17T04:46:25;2.73;;;2.50;;
2396;SDS011;1209;48.410;9.054;2024-03-17T04:48:51;3.90;;;3.03;;
2396;SDS011;1209;48.410;9.054;2024-03-17T04:51:17;4.53;;;3.47;;
2396;SDS011;1209;48.410;9.054;2024-03-17T04:53:42;3.47;;;3.17;;
2396;SDS011;1209;48.410;9.054;2024-03-17T04:56:07;2.90;;;2.63;;
2396;SDS011;1209;48.410;9.054;2024-03-17T04:58:34;3.33;;;3.10;;
2396;SDS011;1209;48.410;9.054;2024-03-17T05:01:07;3.33;;;3.03;;
2396;SDS011;1209;48.410;9.054;2024-03-17T05:03:34;5.20;;;3.27;;
2396;SDS011;1209;48.410;9.054;2024-03-17T05:06:03;4.27;;;3.23;;
2396;SDS011;1209;48.410;9.054;2024-03-17T05:08:29;3.53;;;3.23;;
2396;SDS011;1209;48.410;9.054;2024-03-17T05:10:59;3.60;;;3.10;;
2396;SDS011;1209;48.410;9.054;2024-03-17T05:13:26;3.57;;;3.10;;
2396;SDS011;1209;48.410;9.054;2024-03-17T05:15:52;4.20;;;3.47;;
2396;SDS011;1209;48.410;9.054;2024-03-17T05:18:18;4.43;;;3.50;;
2396;SDS011;1209;48.410;9.054;2024-03-17T05:20:45;4.27;;;3.20;;
2396;SDS011;1209;48.410;9.054;2024-03-17T05:23:12;3.53;;;3.23;;
2396;SDS011;1209;48.410;9.054;2024-03-17T05:25:37;3.40;;;3.10;;
2396;SDS011;1209;48.410;9.054;2024-03-17T05:28:03;4.30;;;3.90;;
2396;SDS011;1209;48.410;9.054;2024-03-17T05:30:29;3.50;;;3.20;;
2396;SDS011;1209;48.410;9.054;2024-03-17T05:32:55;4.20;;;3.80;;
2396;SDS011;1209;48.410;9.054;2024-03-17T05:35:21;5.70;;;3.73;;
2396;SDS011;1209;48.410;9.054;2024-03-17T05:37:46;4.67;;;2.90;;
2396;SDS011;1209;48.410;9.054;2024-03-17T05:40:13;4.63;;;3.87;;
2396;SDS011;1209;48.410;9.054;2024-03-17T05:42:41;4.17;;;3.47;;
2396;SDS011;1209;48.410;9.054;2024-03-17T05:45:08;4.40;;;3.60;;
2396;SDS011;1209;48.410;9.054;2024-03-17T05:47:37;3.40;;;3.10;;
2396;SDS011;1209;48.410;9.054;2024-03-17T05:50:03;5.30;;;3.80;;
2396;SDS011;1209;48.410;9.054;2024-03-17T05:52:29;3.83;;;3.17;;
2396;SDS011;1209;48.410;9.054;2024-03-17T05:54:55;4.23;;;3.83;;
2396;SDS011;1209;48.410;9.054;2024-03-17T05:57:20;4.30;;;3.90;;
2396;SDS011;1209;48.410;9.054;2024-03-17T05:59:48;4.47;;;4.07;;
2396;SDS011;1209;48.410;9.054;2024-03-17T06:02:13;7.57;;;4.77;;
2396;SDS011;1209;48.410;9.054;2024-03-17T06:04:40;6.20;;;5.10;;
2396;SDS011;1209;48.410;9.054;2024-03-17T06:07:05;4.33;;;3.83;;
2396;SDS011;1209;48.410;9.054;2024-03-17T06:09:31;5.30;;;4.80;;
2396;SDS011;1209;48.410;9.054;2024-03-17T06:11:57;4.60;;;3.53;;
2396;SDS011;1209;48.410;9.054;2024-03-17T06:14:22;5.20;;;4.00;;
2396;SDS011;1209;48.410;9.054;2024-03-17T06:16:48;4.67;;;4.23;;
2396;SDS011;1209;48.410;9.054;2024-03-17T06:19:13;6.83;;;4.70;;
2396;SDS011;1209;48.410;9.054;2024-03-17T06:21:39;6.73;;;5.17;;
2396;SDS011;1209;48.410;9.054;2024-03-17T06:24:05;5.10;;;4.30;;
2396;SDS011;1209;48.410;9.054;2024-03-17T06:26:31;6.30;;;5.30;;
2396;SDS011;1209;48.410;9.054;2024-03-17T06:28:59;5.53;;;4.70;;
2396;SDS011;1209;48.410;9.054;2024-03-17T06:31:27;5.37;;;4.37;;
2396;SDS011;1209;48.410;9.054;2024-03-17T06:33:52;5.40;;;4.90;;
2396;SDS011;1209;48.410;9.054;2024-03-17T06:36:18;5.60;;;4.67;;
2396;SDS011;1209;48.410;9.054;2024-03-17T06:38:44;9.10;;;4.93;;
2396;SDS011;1209;48.410;9.054;2024-03-17T06:41:10;5.83;;;4.77;;
2396;SDS011;1209;48.410;9.054;2024-03-17T06:43:35;5.47;;;4.60;;
2396;SDS011;1209;48.410;9.054;2024-03-17T06:46:01;5.67;;;4.60;;
2396;SDS011;1209;48.410;9.054;2024-03-17T06:48:27;5.87;;;4.50;;
2396;SDS011;1209;48.410;9.054;2024-03-17T06:50:54;5.43;;;4.93;;
2396;SDS011;1209;48.410;9.054;2024-03-17T06:53:22;5.50;;;4.63;;
2396;SDS011;1209;48.410;9.054;2024-03-17T06:55:55;5.53;;;4.30;;
2396;SDS011;1209;48.410;9.054;2024-03-17T06:58:22;4.80;;;3.93;;
2396;SDS011;1209;48.410;9.054;2024-03-17T07:00:55;4.90;;;4.50;;
2396;SDS011;1209;48.410;9.054;2024-03-17T07:03:39;5.53;;;4.00;;
2396;SDS011;1209;48.410;9.054;2024-03-17T07:06:06;6.30;;;5.00;;
2396;SDS011;1209;48.410;9.054;2024-03-17T07:08:33;5.20;;;4.70;;
2396;SDS011;1209;48.410;9.054;2024-03-17T07:13:29;7.20;;;5.20;;
2396;SDS011;1209;48.410;9.054;2024-03-17T07:15:57;6.50;;;5.77;;
2396;SDS011;1209;48.410;9.054;2024-03-17T07:18:24;5.90;;;4.97;;
2396;SDS011;1209;48.410;9.054;2024-03-17T07:20:50;9.13;;;5.30;;
2396;SDS011;1209;48.410;9.054;2024-03-17T07:23:16;6.13;;;4.23;;
2396;SDS011;1209;48.410;9.054;2024-03-17T07:25:42;4.90;;;4.03;;
2396;SDS011;1209;48.410;9.054;2024-03-17T07:28:08;7.47;;;5.87;;
2396;SDS011;1209;48.410;9.054;2024-03-17T07:30:34;6.20;;;4.70;;
2396;SDS011;1209;48.410;9.054;2024-03-17T07:33:00;4.93;;;4.40;;
2396;SDS011;1209;48.410;9.054;2024-03-17T07:35:27;5.27;;;4.47;;
2396;SDS011;1209;48.410;9.054;2024-03-17T07:37:53;4.87;;;4.17;;
2396;SDS011;1209;48.410;9.054;2024-03-17T07:40:18;7.20;;;5.57;;
2396;SDS011;1209;48.410;9.054;2024-03-17T07:42:44;4.80;;;4.40;;
2396;SDS011;1209;48.410;9.054;2024-03-17T07:45:10;4.43;;;3.93;;
2396;SDS011;1209;48.410;9.054;2024-03-17T07:47:36;5.73;;;4.40;;
2396;SDS011;1209;48.410;9.054;2024-03-17T07:50:02;8.13;;;4.47;;
2396;SDS011;1209;48.410;9.054;2024-03-17T07:52:30;4.80;;;4.30;;
2396;SDS011;1209;48.410;9.054;2024-03-17T07:54:55;5.30;;;4.40;;
2396;SDS011;1209;48.410;9.054;2024-03-17T07:57:21;9.50;;;4.90;;
2396;SDS011;1209;48.410;9.054;2024-03-17T07:59:50;6.83;;;4.07;;
2396;SDS011;1209;48.410;9.054;2024-03-17T08:02:16;4.50;;;4.10;;
2396;SDS011;1209;48.410;9.054;2024-03-17T08:04:43;5.37;;;4.23;;
2396;SDS011;1209;48.410;9.054;2024-03-17T08:07:10;3.73;;;3.43;;
2396;SDS011;1209;48.410;9.054;2024-03-17T08:09:35;4.20;;;3.80;;
2396;SDS011;1209;48.410;9.054;2024-03-17T08:12:01;4.97;;;3.80;;
2396;SDS011;1209;48.410;9.054;2024-03-17T08:14:29;3.87;;;2.87;;
2396;SDS011;1209;48.410;9.054;2024-03-17T08:16:58;4.33;;;3.93;;
2396;SDS011;1209;48.410;9.054;2024-03-17T08:19:24;5.97;;;4.60;;
2396;SDS011;1209;48.410;9.054;2024-03-17T08:21:49;4.23;;;3.50;;
2396;SDS011;1209;48.410;9.054;2024-03-17T08:24:14;5.17;;;3.97;;
2396;SDS011;1209;48.410;9.054;2024-03-17T08:26:39;7.60;;;4.17;;
2396;SDS011;1209;48.410;9.054;2024-03-17T08:29:05;4.20;;;3.60;;
2396;SDS011;1209;48.410;9.054;2024-03-17T08:31:31;4.57;;;3.23;;
2396;SDS011;1209;48.410;9.054;2024-03-17T08:33:57;3.80;;;3.50;;
2396;SDS011;1209;48.410;9.054;2024-03-17T08:36:23;4.90;;;4.17;;
2396;SDS011;1209;48.410;9.054;2024-03-17T08:38:49;5.07;;;4.20;;
2396;SDS011;1209;48.410;9.054;2024-03-17T08:41:15;3.93;;;3.53;;
2396;SDS011;1209;48.410;9.054;2024-03-17T08:43:41;4.50;;;4.07;;
2396;SDS011;1209;48.410;9.054;2024-03-17T08:46:08;4.53;;;4.13;;
2396;SDS011;1209;48.410;9.054;2024-03-17T08:48:35;3.43;;;3.10;;
2396;SDS011;1209;48.410;9.054;2024-03-17T08:51:02;3.60;;;3.30;;
2396;SDS011;1209;48.410;9.054;2024-03-17T08:53:30;5.60;;;3.70;;
2396;SDS011;1209;48.410;9.054;2024-03-17T08:55:56;4.33;;;3.93;;
2396;SDS011;1209;48.410;9.054;2024-03-17T08:58:22;5.17;;;3.93;;
2396;SDS011;1209;48.410;9.054;2024-03-17T09:00:48;6.00;;;2.57;;
2396;SDS011;1209;48.410;9.054;2024-03-17T09:03:14;4.50;;;3.13;;
2396;SDS011;1209;48.410;9.054;2024-03-17T09:05:40;3.33;;;3.07;;
2396;SDS011;1209;48.410;9.054;2024-03-17T09:08:07;4.13;;;3.30;;
2396;SDS011;1209;48.410;9.054;2024-03-17T09:10:39;3.53;;;2.97;;
2396;SDS011;1209;48.410;9.054;2024-03-17T09:13:05;4.20;;;3.80;;
2396;SDS011;1209;48.410;9.054;2024-03-17T09:15:30;4.90;;;3.53;;
2396;SDS011;1209;48.410;9.054;2024-03-17T09:17:55;6.40;;;3.30;;
2396;SDS011;1209;48.410;9.054;2024-03-17T09:20:21;3.60;;;3.30;;
2396;SDS011;1209;48.410;9.054;2024-03-17T09:22:46;3.27;;;2.80;;
2396;SDS011;1209;48.410;9.054;2024-03-17T09:25:11;3.43;;;3.07;;
2396;SDS011;1209;48.410;9.054;2024-03-17T09:27:36;2.93;;;2.00;;
2396;SDS011;1209;48.410;9.054;2024-03-17T09:30:05;4.40;;;2.57;;
2396;SDS011;1209;48.410;9.054;2024-03-17T09:32:37;6.73;;;2.50;;
2396;SDS011;1209;48.410;9.054;2024-03-17T09:35:03;2.60;;;2.40;;
2396;SDS011;1209;48.410;9.054;2024-03-17T09:37:31;4.63;;;3.30;;
2396;SDS011;1209;48.410;9.054;2024-03-17T09:39:57;4.07;;;2.63;;
2396;SDS011;1209;48.410;9.054;2024-03-17T09:42:24;3.43;;;3.17;;
2396;SDS011;1209;48.410;9.054;2024-03-17T09:44:50;4.10;;;3.20;;
2396;SDS011;1209;48.410;9.054;2024-03-17T09:47:19;3.40;;;3.10;;
2396;SDS011;1209;48.410;9.054;2024-03-17T09:49:46;3.80;;;2.60;;
2396;SDS011;1209;48.410;9.054;2024-03-17T09:52:20;2.40;;;2.20;;
2396;SDS011;1209;48.410;9.054;2024-03-17T09:54:49;4.53;;;2.43;;
2396;SDS011;1209;48.410;9.054;2024-03-17T09:57:18;3.60;;;1.77;;
2396;SDS011;1209;48.410;9.054;2024-03-17T09:59:50;1.47;;;1.37;;
2396;SDS011;1209;48.410;9.054;2024-03-17T10:02:17;1.50;;;1.40;;
2396;SDS011;1209;48.410;9.054;2024-03-17T10:04:43;3.33;;;1.60;;
2396;SDS011;1209;48.410;9.054;2024-03-17T10:07:09;3.17;;;1.80;;
2396;SDS011;1209;48.410;9.054;2024-03-17T10:09:34;2.47;;;1.87;;
2396;SDS011;1209;48.410;9.054;2024-03-17T10:11:59;2.40;;;1.87;;
2396;SDS011;1209;48.410;9.054;2024-03-17T10:14:25;1.60;;;1.40;;
2396;SDS011;1209;48.410;9.054;2024-03-17T10:16:50;1.87;;;1.40;;
2396;SDS011;1209;48.410;9.054;2024-03-17T10:19:25;5.47;;;2.00;;
2396;SDS011;1209;48.410;9.054;2024-03-17T10:21:58;2.13;;;1.00;;
2396;SDS011;1209;48.410;9.054;2024-03-17T10:24:25;3.10;;;0.80;;
2396;SDS011;1209;48.410;9.054;2024-03-17T10:26:55;1.90;;;1.00;;
2396;SDS011;1209;48.410;9.054;2024-03-17T10:29:22;1.10;;;1.10;;
2396;SDS011;1209;48.410;9.054;2024-03-17T10:31:56;2.47;;;1.00;;
2396;SDS011;1209;48.410;9.054;2024-03-17T10:34:29;2.07;;;1.80;;
2396;SDS011;1209;48.410;9.054;2024-03-17T10:39:36;3.17;;;1.60;;
2396;SDS011;1209;48.410;9.054;2024-03-17T10:42:03;2.00;;;1.60;;
2396;SDS011;1209;48.410;9.054;2024-03-17T10:44:30;1.37;;;1.27;;
2396;SDS011;1209;48.410;9.054;2024-03-17T10:46:59;1.60;;;0.97;;
2396;SDS011;1209;48.410;9.054;2024-03-17T10:49:29;4.43;;;1.53;;
2396;SDS011;1209;48.410;9.054;2024-03-17T10:51:58;3.53;;;1.77;;
2396;SDS011;1209;48.410;9.054;2024-03-17T10:54:25;1.90;;;1.53;;
2396;SDS011;1209;48.410;9.054;2024-03-17T10:56:53;5.63;;;2.17;;
2396;SDS011;1209;48.410;9.054;2024-03-17T10:59:28;4.43;;;1.90;;
2396;SDS011;1209;48.410;9.054;2024-03-17T11:02:25;2.27;;;1.53;;
2396;SDS011;1209;48.410;9.054;2024-03-17T11:05:00;1.40;;;1.30;;
2396;SDS011;1209;48.410;9.054;2024-03-17T11:07:27;2.23;;;1.30;;
2396;SDS011;1209;48.410;9.054;2024-03-17T11:09:56;4.70;;;1.43;;
2396;SDS011;1209;48.410;9.054;2024-03-17T11:12:43;1.90;;;1.33;;
2396;SDS011;1209;48.410;9.054;2024-03-17T11:17:44;4.50;;;1.50;;
2396;SDS011;1209;48.410;9.054;2024-03-17T11:20:17;3.83;;;1.70;;
2396;SDS011;1209;48.410;9.054;2024-03-17T11:22:48;2.40;;;1.93;;
2396;SDS011;1209;48.410;9.054;2024-03-17T11:38:51;0.90;;;0.90;;
2396;SDS011;1209;48.410;9.054;2024-03-17T11:41:44;2.10;;;1.53;;
2396;SDS011;1209;48.410;9.054;2024-03-17T11:46:39;3.57;;;1.60;;
2396;SDS011;1209;48.410;9.054;2024-03-17T11:49:05;4.97;;;1.63;;
2396;SDS011;1209;48.410;9.054;2024-03-17T11:51:33;1.20;;;1.20;;
2396;SDS011;1209;48.410;9.054;2024-03-17T11:54:00;4.13;;;1.57;;
2396;SDS011;1209;48.410;9.054;2024-03-17T11:56:26;2.67;;;1.40;;
2396;SDS011;1209;48.410;9.054;2024-03-17T11:59:05;4.93;;;1.37;;
2396;SDS011;1209;48.410;9.054;2024-03-17T12:01:34;6.83;;;1.40;;
2396;SDS011;1209;48.410;9.054;2024-03-17T12:03:59;3.83;;;1.17;;
2396;SDS011;1209;48.410;9.054;2024-03-17T12:06:29;4.97;;;1.60;;
2396;SDS011;1209;48.410;9.054;2024-03-17T12:08:54;12.93;;;1.53;;
2396;SDS011;1209;48.410;9.054;2024-03-17T12:11:20;1.87;;;1.23;;
2396;SDS011;1209;48.410;9.054;2024-03-17T12:13:47;2.30;;;1.40;;
2396;SDS011;1209;48.410;9.054;2024-03-17T12:16:13;1.23;;;1.13;;
2396;SDS011;1209;48.410;9.054;2024-03-17T12:18:40;4.80;;;1.50;;
2396;SDS011;1209;48.410;9.054;2024-03-17T12:21:13;1.90;;;1.20;;
2396;SDS011;1209;48.410;9.054;2024-03-17T12:23:39;6.50;;;1.33;;
2396;SDS011;1209;48.410;9.054;2024-03-17T12:26:05;2.40;;;1.57;;
2396;SDS011;1209;48.410;9.054;2024-03-17T12:28:40;3.90;;;2.33;;
2396;SDS011;1209;48.410;9.054;2024-03-17T12:31:05;0.97;;;0.93;;
2396;SDS011;1209;48.410;9.054;2024-03-17T12:33:31;3.17;;;1.37;;
2396;SDS011;1209;48.410;9.054;2024-03-17T12:35:56;2.00;;;0.97;;
2396;SDS011;1209;48.410;9.054;2024-03-17T12:38:25;1.70;;;1.50;;
2396;SDS011;1209;48.410;9.054;2024-03-17T12:40:50;4.60;;;1.40;;
2396;SDS011;1209;48.410;9.054;2024-03-17T12:43:16;2.67;;;1.27;;
2396;SDS011;1209;48.410;9.054;2024-03-17T12:45:41;1.60;;;1.23;;
2396;SDS011;1209;48.410;9.054;2024-03-17T12:48:14;1.30;;;1.03;;
2396;SDS011;1209;48.410;9.054;2024-03-17T12:50:46;2.60;;;1.17;;
2396;SDS011;1209;48.410;9.054;2024-03-17T12:53:15;1.57;;;1.17;;
2396;SDS011;1209;48.410;9.054;2024-03-17T12:55:52;1.83;;;1.20;;
2396;SDS011;1209;48.410;9.054;2024-03-17T12:58:37;2.10;;;1.40;;
2396;SDS011;1209;48.410;9.054;2024-03-17T13:01:21;2.87;;;1.10;;
2396;SDS011;1209;48.410;9.054;2024-03-17T13:03:46;5.43;;;1.40;;
2396;SDS011;1209;48.410;9.054;2024-03-17T13:06:21;1.53;;;1.07;;
2396;SDS011;1209;48.410;9.054;2024-03-17T13:08:51;2.77;;;2.17;;
2396;SDS011;1209;48.410;9.054;2024-03-17T13:11:17;1.90;;;1.50;;
2396;SDS011;1209;48.410;9.054;2024-03-17T13:13:42;4.43;;;2.00;;
2396;SDS011;1209;48.410;9.054;2024-03-17T13:16:07;1.60;;;1.20;;
2396;SDS011;1209;48.410;9.054;2024-03-17T13:18:37;2.83;;;1.50;;
2396;SDS011;1209;48.410;9.054;2024-03-17T13:21:03;3.53;;;1.37;;
2396;SDS011;1209;48.410;9.054;2024-03-17T13:23:28;1.40;;;1.30;;
2396;SDS011;1209;48.410;9.054;2024-03-17T13:25:55;2.70;;;1.50;;
2396;SDS011;1209;48.410;9.054;2024-03-17T13:28:20;1.70;;;0.97;;
2396;SDS011;1209;48.410;9.054;2024-03-17T13:30:45;0.90;;;0.90;;
2396;SDS011;1209;48.410;9.054;2024-03-17T13:33:12;1.33;;;1.10;;
2396;SDS011;1209;48.410;9.054;2024-03-17T13:35:38;1.00;;;1.00;;
2396;SDS011;1209;48.410;9.054;2024-03-17T13:38:08;1.90;;;1.00;;
2396;SDS011;1209;48.410;9.054;2024-03-17T13:40:35;1.80;;;1.30;;
2396;SDS011;1209;48.410;9.054;2024-03-17T13:43:03;4.93;;;1.20;;
2396;SDS011;1209;48.410;9.054;2024-03-17T13:45:31;0.90;;;0.90;;
2396;SDS011;1209;48.410;9.054;2024-03-17T13:48:03;2.90;;;1.03;;
2396;SDS011;1209;48.410;9.054;2024-03-17T13:50:29;2.27;;;1.33;;
2396;SDS011;1209;48.410;9.054;2024-03-17T13:52:55;3.90;;;1.27;;
2396;SDS011;1209;48.410;9.054;2024-03-17T13:55:23;1.10;;;1.00;;
2396;SDS011;1209;48.410;9.054;2024-03-17T13:57:55;1.90;;;1.70;;
2396;SDS011;1209;48.410;9.054;2024-03-17T14:00:22;4.00;;;1.30;;
2396;SDS011;1209;48.410;9.054;2024-03-17T14:02:49;1.20;;;1.10;;
2396;SDS011;1209;48.410;9.054;2024-03-17T14:05:16;2.10;;;1.40;;
2396;SDS011;1209;48.410;9.054;2024-03-17T14:07:42;2.67;;;1.20;;
2396;SDS011;1209;48.410;9.054;2024-03-17T14:10:10;5.50;;;1.03;;
2396;SDS011;1209;48.410;9.054;2024-03-17T14:12:36;2.83;;;1.37;;
2396;SDS011;1209;48.410;9.054;2024-03-17T14:15:05;1.77;;;1.13;;
2396;SDS011;1209;48.410;9.054;2024-03-17T14:17:32;1.20;;;1.10;;
2396;SDS011;1209;48.410;9.054;2024-03-17T14:19:58;2.33;;;1.40;;
2396;SDS011;1209;48.410;9.054;2024-03-17T14:22:23;2.03;;;1.23;;
2396;SDS011;1209;48.410;9.054;2024-03-17T14:24:49;1.87;;;1.30;;
2396;SDS011;1209;48.410;9.054;2024-03-17T14:27:15;0.67;;;0.67;;
2396;SDS011;1209;48.410;9.054;2024-03-17T14:29:41;1.10;;;1.00;;
2396;SDS011;1209;48.410;9.054;2024-03-17T14:32:06;1.83;;;0.90;;
2396;SDS011;1209;48.410;9.054;2024-03-17T14:34:32;2.70;;;2.20;;
2396;SDS011;1209;48.410;9.054;2024-03-17T14:37:02;1.07;;;0.97;;
2396;SDS011;1209;48.410;9.054;2024-03-17T14:39:28;1.23;;;0.97;;
2396;SDS011;1209;48.410;9.054;2024-03-17T14:41:54;1.03;;;0.93;;
2396;SDS011;1209;48.410;9.054;2024-03-17T14:44:20;1.13;;;0.97;;
2396;SDS011;1209;48.410;9.054;2024-03-17T14:46:47;3.70;;;1.57;;
2396;SDS011;1209;48.410;9.054;2024-03-17T14:49:16;1.97;;;1.30;;
2396;SDS011;1209;48.410;9.054;2024-03-17T14:51:42;3.70;;;1.80;;
2396;SDS011;1209;48.410;9.054;2024-03-17T14:54:07;8.23;;;1.97;;
2396;SDS011;1209;48.410;9.054;2024-03-17T14:56:34;1.73;;;1.10;;
2396;SDS011;1209;48.410;9.054;2024-03-17T14:59:00;3.60;;;1.10;;
2396;SDS011;1209;48.410;9.054;2024-03-17T15:01:26;3.90;;;1.43;;
2396;SDS011;1209;48.410;9.054;2024-03-17T15:03:56;2.07;;;1.20;;
2396;SDS011;1209;48.410;9.054;2024-03-17T15:06:21;2.50;;;1.07;;
2396;SDS011;1209;48.410;9.054;2024-03-17T15:08:47;2.77;;;1.30;;
2396;SDS011;1209;48.410;9.054;2024-03-17T15:11:12;1.80;;;1.03;;
2396;SDS011;1209;48.410;9.054;2024-03-17T15:13:37;2.50;;;0.97;;
2396;SDS011;1209;48.410;9.054;2024-03-17T15:16:03;1.60;;;1.30;;
2396;SDS011;1209;48.410;9.054;2024-03-17T15:18:31;3.33;;;1.60;;
2396;SDS011;1209;48.410;9.054;2024-03-17T15:20:57;2.57;;;1.60;;
2396;SDS011;1209;48.410;9.054;2024-03-17T15:23:22;1.80;;;1.33;;
2396;SDS011;1209;48.410;9.054;2024-03-17T15:26:00;2.50;;;0.80;;
2396;SDS011;1209;48.410;9.054;2024-03-17T15:28:32;1.63;;;1.53;;
2396;SDS011;1209;48.410;9.054;2024-03-17T15:30:58;5.17;;;1.17;;
2396;SDS011;1209;48.410;9.054;2024-03-17T15:33:25;2.20;;;1.27;;
2396;SDS011;1209;48.410;9.054;2024-03-17T15:35:51;1.83;;;1.60;;
2396;SDS011;1209;48.410;9.054;2024-03-17T15:38:16;7.63;;;1.53;;